createdAt,value
2022-08-18T00:00:20.472Z,21.10
2022-08-18T00:05:04.393Z,21.00
2022-08-18T00:09:51.155Z,20.90
2022-08-18T00:14:36.246Z,21.00
2022-08-18T00:19:19.896Z,21.10
2022-08-18T00:24:03.763Z,21.20
2022-08-18T00:28:47.631Z,21.10
2022-08-18T00:33:32.857Z,21.10
2022-08-18T00:38:23.604Z,21.10
2022-08-18T00:43:14.058Z,21.00
2022-08-18T00:47:58.453Z,20.90
2022-08-18T00:52:48.214Z,21.00
2022-08-18T00:57:33.753Z,20.90
2022-08-18T01:02:21.784Z,20.80
2022-08-18T01:07:09.551Z,20.70
2022-08-18T01:11:54.795Z,20.70
2022-08-18T01:16:56.978Z,20.60
2022-08-18T01:21:52.323Z,20.30
2022-08-18T01:26:44.205Z,20.30
2022-08-18T01:31:38.284Z,20.20
2022-08-18T01:36:23.970Z,20.10
2022-08-18T01:41:27.333Z,20.00
2022-08-18T01:46:14.092Z,20.00
2022-08-18T01:51:01.544Z,20.00
2022-08-18T01:55:45.631Z,20.00
2022-08-18T02:00:29.657Z,20.00
2022-08-18T02:05:18.381Z,19.90
2022-08-18T02:10:03.322Z,20.10
2022-08-18T02:14:47.311Z,20.30
2022-08-18T02:19:35.359Z,20.40
2022-08-18T02:24:20.514Z,20.40
2022-08-18T02:29:04.081Z,20.40
2022-08-18T02:33:52.350Z,20.40
2022-08-18T02:38:36.390Z,20.30
2022-08-18T02:43:21.558Z,20.40
2022-08-18T02:48:05.912Z,20.30
2022-08-18T02:52:49.780Z,20.20
2022-08-18T02:57:33.302Z,20.00
2022-08-18T03:02:18.579Z,19.80
2022-08-18T03:07:04.808Z,19.60
2022-08-18T03:11:49.105Z,19.50
2022-08-18T03:16:33.467Z,19.40
2022-08-18T03:21:21.432Z,19.30
2022-08-18T03:26:04.940Z,19.20
2022-08-18T03:30:48.423Z,19.10
2022-08-18T03:35:32.083Z,19.10
2022-08-18T03:40:17.196Z,19.10
2022-08-18T03:45:00.875Z,19.10
2022-08-18T03:49:56.832Z,19.00
2022-08-18T03:54:41.164Z,19.00
2022-08-18T03:59:27.675Z,18.80
2022-08-18T04:04:13.514Z,18.90
2022-08-18T04:08:58.899Z,18.90
2022-08-18T04:13:42.641Z,19.00
2022-08-18T04:18:28.441Z,18.90
2022-08-18T04:23:12.252Z,18.90
2022-08-18T04:27:58.073Z,18.80
2022-08-18T04:32:41.879Z,18.70
2022-08-18T04:37:26.886Z,18.70
2022-08-18T04:42:10.679Z,18.60
2022-08-18T04:46:55.851Z,18.60
2022-08-18T04:52:27.017Z,18.70
2022-08-18T04:56:49.145Z,19.00
2022-08-18T05:01:36.046Z,19.30
2022-08-18T05:06:21.055Z,19.70
2022-08-18T05:11:05.761Z,20.10
2022-08-18T05:16:10.074Z,20.50
2022-08-18T05:20:57.718Z,20.70
2022-08-18T05:25:43.069Z,20.70
2022-08-18T05:30:27.158Z,20.90
2022-08-18T05:35:16.369Z,21.10
2022-08-18T05:40:10.391Z,21.20
2022-08-18T05:44:57.343Z,21.30
2022-08-18T05:49:44.514Z,21.60
2022-08-18T05:54:56.073Z,22.10
2022-08-18T05:59:49.390Z,23.00
2022-08-18T06:04:44.581Z,24.00
2022-08-18T06:09:35.713Z,24.80
2022-08-18T06:14:20.281Z,25.80
2022-08-18T06:19:10.823Z,26.80
2022-08-18T06:24:02.122Z,27.60
2022-08-18T06:28:58.589Z,27.80
2022-08-18T06:33:51.840Z,27.90
2022-08-18T06:38:45.423Z,28.20
2022-08-18T06:43:35.435Z,28.50
2022-08-18T06:48:34.731Z,29.20
2022-08-18T06:53:26.793Z,29.90
2022-08-18T06:58:30.146Z,29.80
2022-08-18T07:03:16.561Z,30.10
2022-08-18T07:08:14.618Z,30.40
2022-08-18T07:13:26.862Z,30.30
2022-08-18T07:18:12.167Z,30.10
2022-08-18T07:23:00.902Z,29.70
2022-08-18T07:27:52.846Z,29.30
2022-08-18T07:32:43.644Z,29.10
2022-08-18T07:37:33.110Z,29.20
2022-08-18T07:42:54.262Z,29.30
2022-08-18T07:47:46.795Z,29.40
2022-08-18T07:52:44.577Z,29.30
2022-08-18T07:57:43.572Z,29.40
2022-08-18T08:02:39.971Z,29.50
2022-08-18T08:07:29.205Z,29.30
2022-08-18T08:12:24.533Z,29.10
2022-08-18T08:17:19.298Z,29.30
2022-08-18T08:22:09.753Z,29.10
2022-08-18T08:27:00.331Z,29.30
2022-08-18T08:31:52.053Z,29.10
2022-08-18T08:36:39.216Z,29.30
2022-08-18T08:41:31.480Z,29.60
2022-08-18T08:46:21.303Z,30.10
2022-08-18T08:51:20.497Z,31.00
2022-08-18T08:56:10.702Z,32.20
2022-08-18T09:01:00.134Z,33.40
2022-08-18T09:05:57.286Z,34.10
2022-08-18T09:11:21.623Z,34.70
2022-08-18T09:16:21.732Z,34.30
2022-08-18T09:21:31.538Z,33.40
2022-08-18T09:26:29.424Z,33.20
2022-08-18T09:31:19.961Z,32.60
2022-08-18T09:36:18.428Z,32.00
2022-08-18T09:41:27.990Z,31.90
2022-08-18T09:46:57.544Z,31.80
2022-08-18T09:51:42.410Z,31.60
2022-08-18T09:57:25.351Z,31.30
2022-08-18T10:02:36.819Z,31.10
2022-08-18T10:07:38.880Z,31.20
2022-08-18T10:12:45.224Z,31.30
2022-08-18T10:17:50.123Z,31.30
2022-08-18T10:22:46.748Z,31.20
2022-08-18T10:27:49.039Z,31.00
2022-08-18T10:37:50.758Z,30.50
2022-08-18T10:42:39.316Z,30.40
2022-08-18T10:53:24.218Z,29.60
2022-08-18T10:58:14.646Z,29.40
2022-08-18T11:03:42.307Z,29.30
2022-08-18T11:08:25.228Z,28.90
2022-08-18T11:13:17.508Z,28.60
2022-08-18T11:18:18.043Z,28.30
2022-08-18T11:23:04.148Z,27.80
2022-08-18T11:27:50.454Z,27.70
2022-08-18T11:32:36.674Z,27.50
2022-08-18T11:37:51.600Z,27.40
2022-08-18T11:42:34.432Z,27.50
2022-08-18T11:52:29.629Z,27.40
2022-08-18T11:57:46.390Z,27.30
2022-08-18T12:02:32.879Z,27.20
2022-08-18T12:07:20.518Z,27.00
2022-08-18T12:12:08.385Z,26.70
2022-08-18T12:16:59.756Z,26.70
2022-08-18T12:21:59.914Z,26.40
2022-08-18T12:26:47.581Z,26.40
2022-08-18T12:31:42.276Z,26.40
2022-08-18T12:36:34.016Z,26.50
2022-08-18T12:41:23.564Z,26.30
2022-08-18T12:46:08.390Z,26.70
2022-08-18T12:50:55.906Z,27.20
2022-08-18T12:55:45.853Z,27.50
2022-08-18T13:00:31.295Z,28.00
2022-08-18T13:05:14.848Z,28.20
2022-08-18T13:09:58.683Z,28.30
2022-08-18T13:14:43.416Z,28.50
2022-08-18T13:19:32.038Z,28.50
2022-08-18T13:24:21.091Z,28.60
2022-08-18T13:29:10.103Z,29.10
2022-08-18T13:33:57.921Z,29.50
2022-08-18T13:38:46.706Z,29.80
2022-08-18T13:43:34.396Z,29.90
2022-08-18T13:48:18.582Z,30.20
2022-08-18T13:53:03.009Z,31.30
2022-08-18T13:57:53.700Z,31.80
2022-08-18T14:02:40.575Z,31.60
2022-08-18T14:07:27.559Z,31.30
2022-08-18T14:12:22.640Z,30.60
2022-08-18T14:17:08.944Z,30.80
2022-08-18T14:22:11.883Z,30.60
2022-08-18T14:26:55.618Z,30.30
2022-08-18T14:31:39.382Z,30.30
2022-08-18T14:36:30.544Z,30.10
2022-08-18T14:41:15.849Z,29.80
2022-08-18T14:46:00.007Z,29.60
2022-08-18T14:50:49.060Z,29.20
2022-08-18T14:55:34.690Z,28.80
2022-08-18T15:00:22.588Z,28.80
2022-08-18T15:05:19.470Z,28.90
2022-08-18T15:10:15.694Z,28.90
2022-08-18T15:15:02.129Z,28.90
2022-08-18T15:19:59.510Z,28.90
2022-08-18T15:25:06.391Z,29.10
2022-08-18T15:29:50.855Z,29.10
2022-08-18T15:34:45.947Z,29.10
2022-08-18T15:39:30.372Z,29.20
2022-08-18T15:44:19.034Z,29.50
2022-08-18T15:49:05.330Z,29.20
2022-08-18T15:54:00.939Z,29.10
2022-08-18T15:58:46.990Z,29.20
2022-08-18T16:03:31.768Z,29.30
2022-08-18T16:08:17.959Z,29.00
2022-08-18T16:13:04.768Z,28.70
2022-08-18T16:17:49.570Z,28.50
2022-08-18T16:22:33.367Z,28.50
2022-08-18T16:27:17.454Z,28.20
2022-08-18T16:32:03.723Z,28.10
2022-08-18T16:36:48.041Z,27.80
2022-08-18T16:41:32.006Z,27.70
2022-08-18T16:46:18.050Z,27.50
2022-08-18T16:51:03.518Z,27.40
2022-08-18T16:55:47.572Z,27.20
2022-08-18T17:00:52.881Z,27.00
2022-08-18T17:05:39.078Z,27.00
2022-08-18T17:10:24.300Z,26.70
2022-08-18T17:15:11.114Z,26.60
2022-08-18T17:19:54.677Z,26.40
2022-08-18T17:24:49.397Z,26.30
2022-08-18T17:29:38.668Z,26.20
2022-08-18T17:34:28.750Z,26.00
2022-08-18T17:39:16.158Z,26.00
2022-08-18T17:44:03.083Z,25.90
2022-08-18T17:48:54.871Z,25.70
2022-08-18T17:53:38.707Z,25.40
2022-08-18T17:58:30.752Z,25.20
2022-08-18T18:03:14.352Z,25.20
2022-08-18T18:08:01.091Z,25.10
2022-08-18T18:12:44.985Z,24.90
2022-08-18T18:17:31.114Z,24.70
2022-08-18T18:22:20.819Z,24.50
2022-08-18T18:27:26.161Z,24.40
2022-08-18T18:32:26.134Z,24.30
2022-08-18T18:37:26.626Z,24.20
2022-08-18T18:42:17.669Z,24.00
2022-08-18T18:47:10.468Z,23.90
2022-08-18T18:52:19.216Z,23.80
2022-08-18T18:57:12.649Z,23.80
2022-08-18T19:02:15.720Z,23.90
2022-08-18T19:07:20.778Z,23.80
2022-08-18T19:12:13.869Z,23.80
2022-08-18T19:17:05.465Z,23.70
2022-08-18T19:22:20.371Z,23.60
2022-08-18T19:27:05.840Z,23.60
2022-08-18T19:32:02.312Z,23.50
2022-08-18T19:36:53.741Z,23.50
2022-08-18T19:41:47.050Z,23.50
2022-08-18T19:46:37.023Z,23.40
2022-08-18T19:51:29.473Z,23.30
2022-08-18T19:56:28.166Z,23.10
2022-08-18T20:01:21.053Z,22.90
2022-08-18T20:06:34.467Z,22.70
2022-08-18T20:11:49.429Z,22.40
2022-08-18T20:16:44.368Z,22.30
2022-08-18T20:21:49.070Z,22.20
2022-08-18T20:26:50.276Z,22.10
2022-08-18T20:31:52.342Z,22.00
2022-08-18T20:36:37.941Z,21.90
2022-08-18T20:41:50.994Z,21.80
2022-08-18T20:46:47.220Z,21.70
2022-08-18T20:51:33.639Z,21.50
2022-08-18T20:56:32.572Z,21.40
2022-08-18T21:01:30.685Z,21.40
2022-08-18T21:06:16.653Z,21.40
2022-08-18T21:11:02.884Z,21.20
2022-08-18T21:15:46.398Z,21.20
2022-08-18T21:20:31.549Z,21.00
2022-08-18T21:25:17.980Z,21.00
2022-08-18T21:30:06.112Z,20.90
2022-08-18T21:34:50.455Z,20.80
2022-08-18T21:39:34.609Z,20.70
2022-08-18T21:44:22.893Z,20.60
2022-08-18T21:49:06.855Z,20.70
2022-08-18T21:53:55.029Z,20.60
2022-08-18T21:58:41.980Z,20.60
2022-08-18T22:03:28.375Z,20.60
2022-08-18T22:08:21.031Z,20.70
2022-08-18T22:13:22.185Z,20.60
2022-08-18T22:18:08.600Z,20.60
2022-08-18T22:23:11.070Z,20.50
2022-08-18T22:27:57.423Z,20.50
2022-08-18T22:32:45.761Z,20.40
2022-08-18T22:37:32.570Z,20.30
2022-08-18T22:42:19.612Z,20.30
2022-08-18T22:47:04.422Z,20.30
2022-08-18T22:51:49.797Z,20.30
2022-08-18T22:56:34.324Z,20.20
2022-08-18T23:01:20.459Z,20.20
2022-08-18T23:06:04.130Z,20.20
2022-08-18T23:10:47.756Z,20.20
2022-08-18T23:15:45.277Z,20.20
2022-08-18T23:20:30.090Z,20.20
2022-08-18T23:25:20.919Z,20.20
2022-08-18T23:30:10.830Z,20.20
2022-08-18T23:34:54.442Z,20.10
2022-08-18T23:39:39.687Z,20.10
2022-08-18T23:44:27.405Z,20.20
2022-08-18T23:49:15.047Z,20.00
2022-08-18T23:54:02.251Z,20.00
2022-08-18T23:58:55.284Z,20.00
